Castlegar, Canada
Current Conditions -  °F | °C
As of 10:00 AM on Friday 24 Oct 2014 (Local Time) from CYCG Reporting Station
Overcast Overcast  
Wind Chill: 40°   Ceiling: 14000
Heat Index: 43°   Visibility: 10mi
Dew Point: 41°   Wind: 5mph
Humidity: 93%   Direction: 190°S
Pressure: 30.12"   Gusts: NA
Location:  49.3°N, 117.65°W
Report Text: CYCG 241700Z 19004KT 10SM FEW003 BKN140 OVC270 06/05 A3012 RMK ST2AC4CI2 SLP211
Loading
Personal Weather Stations






























Interactive Weather Map
Tropical Storm Tracking
New forecast layout! Learn more

10-Day Weather Forecast

Advertisements
Track Severe Weather on mobile